createdAt,value
2019-03-03T00:06:07.301Z,6.81
2019-03-03T00:11:10.327Z,6.82
2019-03-03T00:13:58.083Z,6.84
2019-03-03T00:16:26.493Z,6.86
2019-03-03T00:18:54.898Z,6.87
2019-03-03T00:21:23.324Z,6.84
2019-03-03T00:23:51.727Z,6.86
2019-03-03T00:26:20.127Z,6.89
2019-03-03T00:32:02.792Z,6.95
2019-03-03T00:34:31.318Z,6.96
2019-03-03T00:40:07.948Z,6.86
2019-03-03T00:42:55.469Z,6.82
2019-03-03T00:45:43.026Z,6.79
2019-03-03T00:51:19.631Z,6.74
2019-03-03T00:54:07.156Z,6.72
2019-03-03T00:56:54.730Z,6.74
2019-03-03T00:59:42.264Z,6.78
2019-03-03T01:02:29.953Z,6.84
2019-03-03T01:08:06.615Z,6.87
2019-03-03T01:11:13.467Z,6.87
2019-03-03T01:14:01.027Z,6.89
2019-03-03T01:16:48.619Z,6.88
2019-03-03T01:19:36.175Z,6.88
2019-03-03T01:22:23.759Z,6.86
2019-03-03T01:25:11.305Z,6.86
2019-03-03T01:27:39.709Z,6.87
2019-03-03T01:30:48.147Z,6.90
2019-03-03T01:33:35.735Z,6.93
2019-03-03T01:36:23.351Z,6.95
2019-03-03T01:38:51.807Z,7.00
2019-03-03T01:41:20.215Z,6.99
2019-03-03T01:43:48.636Z,6.99
2019-03-03T01:46:17.028Z,7.00
2019-03-03T01:48:45.438Z,7.00
2019-03-03T01:53:47.892Z,6.94
2019-03-03T01:56:16.417Z,6.92
2019-03-03T01:58:44.819Z,6.89
2019-03-03T02:01:32.522Z,6.87
2019-03-03T02:10:43.734Z,6.70
2019-03-03T02:16:20.458Z,6.55
2019-03-03T02:18:48.848Z,6.49
2019-03-03T02:21:17.248Z,6.44
2019-03-03T02:26:19.362Z,6.43
2019-03-03T02:28:47.820Z,6.47
2019-03-03T02:31:16.296Z,6.49
2019-03-03T02:33:44.695Z,6.49
2019-03-03T02:36:53.038Z,6.48
2019-03-03T02:39:40.635Z,6.49
2019-03-03T02:50:51.784Z,6.52
2019-03-03T02:53:20.246Z,6.52
2019-03-03T02:55:48.644Z,6.54
2019-03-03T02:58:17.048Z,6.55
2019-03-03T03:09:17.745Z,6.54
2019-03-03T03:12:05.337Z,6.54
2019-03-03T03:17:31.758Z,6.56
2019-03-03T03:20:19.289Z,6.59
2019-03-03T03:23:06.839Z,6.62
2019-03-03T03:25:54.366Z,6.64
2019-03-03T03:28:41.915Z,6.67
2019-03-03T03:31:29.457Z,6.70
2019-03-03T03:34:17.213Z,6.74
2019-03-03T03:39:53.853Z,6.82
2019-03-03T03:45:51.325Z,6.88
2019-03-03T03:57:01.791Z,6.89
2019-03-03T04:00:10.090Z,6.84
2019-03-03T04:02:57.639Z,6.78
2019-03-03T04:06:04.425Z,6.69
2019-03-03T04:08:52.240Z,6.63
2019-03-03T04:11:39.747Z,6.62
2019-03-03T04:14:27.452Z,6.63
2019-03-03T04:20:04.069Z,6.59
2019-03-03T04:22:51.660Z,6.57
2019-03-03T04:28:14.800Z,6.55
2019-03-03T04:33:51.422Z,6.50
2019-03-03T04:36:38.949Z,6.52
2019-03-03T04:39:47.320Z,6.52
2019-03-03T04:42:34.868Z,6.51
2019-03-03T04:45:22.480Z,6.58
2019-03-03T04:50:59.162Z,6.72
2019-03-03T04:53:46.684Z,6.72
2019-03-03T04:56:34.228Z,6.70
2019-03-03T04:59:21.756Z,6.67
2019-03-03T05:04:44.667Z,6.63
2019-03-03T05:10:21.384Z,6.69
2019-03-03T05:13:08.908Z,6.70
2019-03-03T05:15:56.480Z,6.72
2019-03-03T05:23:47.456Z,6.77
2019-03-03T05:26:35.201Z,6.77
2019-03-03T05:32:11.694Z,6.73
2019-03-03T05:34:40.113Z,6.72
2019-03-03T05:37:08.508Z,6.70
2019-03-03T05:42:10.416Z,6.62
2019-03-03T05:44:38.822Z,6.57
2019-03-03T05:47:07.236Z,6.54
2019-03-03T05:49:35.628Z,6.52
2019-03-03T05:52:04.028Z,6.48
2019-03-03T05:54:51.722Z,6.44
2019-03-03T05:57:20.122Z,6.42
2019-03-03T06:00:00.387Z,6.39
2019-03-03T06:04:53.163Z,6.32
2019-03-03T06:07:21.586Z,6.28
2019-03-03T06:09:49.984Z,6.23
2019-03-03T06:12:18.393Z,6.20
2019-03-03T06:14:46.900Z,6.19
2019-03-03T06:17:15.310Z,6.15
2019-03-03T06:22:31.244Z,6.04
2019-03-03T06:24:59.646Z,6.01
2019-03-03T06:27:28.067Z,6.00
2019-03-03T06:29:56.495Z,6.00
2019-03-03T06:32:24.893Z,6.00
2019-03-03T06:34:53.290Z,6.01
2019-03-03T06:39:56.188Z,6.05
2019-03-03T06:42:24.609Z,6.07
2019-03-03T06:44:53.008Z,6.08
2019-03-03T06:47:21.419Z,6.10
2019-03-03T06:49:49.844Z,6.16
2019-03-03T06:52:30.783Z,6.20
2019-03-03T06:54:59.277Z,6.25
2019-03-03T06:57:46.957Z,6.34
2019-03-03T07:00:55.315Z,6.42
2019-03-03T07:03:23.725Z,6.50
2019-03-03T07:05:52.108Z,6.60
2019-03-03T07:08:20.546Z,6.66
2019-03-03T07:10:48.945Z,6.72
2019-03-03T07:13:17.409Z,6.71
2019-03-03T07:18:19.511Z,6.86
2019-03-03T07:20:47.911Z,6.93
2019-03-03T07:25:50.290Z,7.07
2019-03-03T07:30:52.996Z,7.24
2019-03-03T07:38:31.286Z,7.55
2019-03-03T07:40:59.722Z,7.61
2019-03-03T07:43:28.124Z,7.68
2019-03-03T07:45:56.523Z,7.77
2019-03-03T07:50:59.102Z,7.89
2019-03-03T07:53:40.175Z,7.91
2019-03-03T07:56:08.573Z,7.92
2019-03-03T07:58:36.969Z,7.89
2019-03-03T08:01:05.393Z,7.89
2019-03-03T08:03:33.790Z,7.88
2019-03-03T08:06:02.183Z,7.85
2019-03-03T08:08:30.676Z,7.81
2019-03-03T08:10:59.074Z,7.77
2019-03-03T08:13:27.462Z,7.74
2019-03-03T08:18:30.142Z,7.73
2019-03-03T08:20:58.560Z,7.80
2019-03-03T08:23:26.961Z,7.91
2019-03-03T08:25:55.353Z,7.98
2019-03-03T08:28:23.800Z,7.98
2019-03-03T08:30:52.189Z,8.01
2019-03-03T08:33:20.586Z,8.05
2019-03-03T08:46:49.816Z,8.35
2019-03-03T08:49:37.366Z,8.46
2019-03-03T08:57:36.032Z,8.92
2019-03-03T09:00:44.367Z,9.10
2019-03-03T09:03:31.986Z,9.29
2019-03-03T09:06:19.526Z,9.41
2019-03-03T09:14:21.526Z,9.31
2019-03-03T09:17:09.116Z,9.29
2019-03-03T09:19:56.711Z,9.35
2019-03-03T09:25:33.495Z,9.54
2019-03-03T09:33:45.285Z,9.80
2019-03-03T09:36:32.874Z,9.89
2019-03-03T09:41:56.410Z,10.17
2019-03-03T09:44:43.933Z,10.29
2019-03-03T09:47:31.486Z,10.41
2019-03-03T09:55:43.925Z,10.75
2019-03-03T09:58:28.865Z,10.86
2019-03-03T10:01:16.433Z,10.95
2019-03-03T10:06:53.094Z,11.26
2019-03-03T10:10:01.418Z,11.45
2019-03-03T10:12:49.408Z,11.66
2019-03-03T10:15:37.026Z,11.86
2019-03-03T10:18:24.564Z,11.92
2019-03-03T10:24:01.260Z,12.05
2019-03-03T10:26:48.803Z,12.10
2019-03-03T10:29:36.449Z,12.26
2019-03-03T10:35:52.857Z,12.53
2019-03-03T10:41:29.473Z,12.66
2019-03-03T10:44:36.327Z,12.73
2019-03-03T10:50:18.858Z,12.84
2019-03-03T10:53:06.385Z,12.89
2019-03-03T10:58:32.925Z,13.08
2019-03-03T11:06:44.871Z,13.15
2019-03-03T11:09:53.186Z,13.27
2019-03-03T11:12:40.829Z,13.41
2019-03-03T11:15:49.157Z,13.58
2019-03-03T11:18:36.805Z,13.67
2019-03-03T11:26:52.351Z,14.08
2019-03-03T11:32:29.048Z,14.40
2019-03-03T11:35:35.916Z,14.48
2019-03-03T11:41:18.386Z,14.65
2019-03-03T11:46:55.511Z,14.65
2019-03-03T11:55:47.058Z,14.75
2019-03-03T11:58:34.590Z,14.84
2019-03-03T12:01:22.217Z,14.94
2019-03-03T12:04:04.680Z,15.04
2019-03-03T12:06:52.323Z,15.20
2019-03-03T12:12:29.049Z,15.40
2019-03-03T12:15:16.647Z,15.47
2019-03-03T12:18:04.296Z,15.47
2019-03-03T12:21:12.612Z,15.43
2019-03-03T12:27:14.483Z,15.45
2019-03-03T12:32:51.097Z,15.25
2019-03-03T12:38:27.896Z,15.15
2019-03-03T12:41:15.424Z,15.19
2019-03-03T12:44:02.970Z,15.21
2019-03-03T12:49:39.577Z,15.36
2019-03-03T12:55:16.201Z,15.52
2019-03-03T12:58:03.728Z,15.56
2019-03-03T13:00:51.281Z,15.66
2019-03-03T13:06:40.178Z,15.79
2019-03-03T13:09:27.698Z,15.84
2019-03-03T13:12:15.255Z,15.86
2019-03-03T13:15:02.787Z,15.85
2019-03-03T13:17:50.364Z,15.84
2019-03-03T13:26:02.533Z,15.81
2019-03-03T13:28:50.056Z,15.81
2019-03-03T13:34:12.911Z,15.87
2019-03-03T13:39:49.536Z,16.08
2019-03-03T13:42:37.076Z,16.23
2019-03-03T13:45:45.510Z,16.34
2019-03-03T13:48:13.949Z,16.37
2019-03-03T13:50:42.305Z,16.33
2019-03-03T13:53:10.745Z,16.34
2019-03-03T13:55:39.173Z,16.40
2019-03-03T13:58:07.571Z,16.41
2019-03-03T14:03:31.067Z,16.29
2019-03-03T14:06:18.655Z,16.21
2019-03-03T14:11:40.173Z,16.11
2019-03-03T14:14:48.519Z,16.08
2019-03-03T14:17:24.650Z,16.10
2019-03-03T14:19:53.079Z,16.12
2019-03-03T14:22:21.477Z,16.13
2019-03-03T14:24:49.883Z,16.10
2019-03-03T14:29:52.298Z,16.04
2019-03-03T14:34:54.537Z,16.07
2019-03-03T14:37:23.026Z,16.17
2019-03-03T14:39:51.423Z,16.22
2019-03-03T14:42:19.821Z,16.19
2019-03-03T14:47:43.310Z,15.99
2019-03-03T14:50:51.624Z,15.89
2019-03-03T14:53:20.131Z,15.85
2019-03-03T14:55:48.552Z,15.82
2019-03-03T14:58:17.017Z,15.72
2019-03-03T15:03:19.841Z,15.59
2019-03-03T15:05:48.272Z,15.51
2019-03-03T15:08:16.680Z,15.40
2019-03-03T15:10:45.146Z,15.29
2019-03-03T15:15:47.560Z,15.05
2019-03-03T15:21:08.969Z,14.91
2019-03-03T15:26:11.388Z,14.87
2019-03-03T15:28:39.876Z,14.84
2019-03-03T15:31:08.297Z,14.82
2019-03-03T15:33:38.621Z,14.80
2019-03-03T15:47:04.396Z,14.57
2019-03-03T15:52:06.525Z,14.48
2019-03-03T15:57:27.980Z,14.43
2019-03-03T16:00:15.702Z,14.40
2019-03-03T16:02:44.106Z,14.34
2019-03-03T16:08:26.884Z,14.24
2019-03-03T16:10:55.285Z,14.20
2019-03-03T16:13:23.687Z,14.14
2019-03-03T16:16:11.474Z,14.12
2019-03-03T16:18:59.204Z,14.06
2019-03-03T16:24:01.327Z,13.96
2019-03-03T16:26:49.027Z,13.92
2019-03-03T16:29:17.424Z,13.86
2019-03-03T16:32:05.398Z,13.81
2019-03-03T16:34:33.793Z,13.74
2019-03-03T16:37:02.262Z,13.66
2019-03-03T16:42:23.859Z,13.52
2019-03-03T16:44:52.314Z,13.44
2019-03-03T16:47:20.714Z,13.35
2019-03-03T16:49:49.126Z,13.28
2019-03-03T16:52:17.540Z,13.21
2019-03-03T16:54:45.933Z,13.13
2019-03-03T16:57:33.556Z,13.04
2019-03-03T17:00:01.959Z,12.95
2019-03-03T17:02:30.348Z,12.83
2019-03-03T17:05:18.128Z,12.74
2019-03-03T17:08:05.718Z,12.67
2019-03-03T17:13:08.221Z,12.48
2019-03-03T17:15:36.650Z,12.44
2019-03-03T17:18:05.125Z,12.36
2019-03-03T17:20:33.521Z,12.30
2019-03-03T17:23:01.977Z,12.23
2019-03-03T17:25:30.369Z,12.18
2019-03-03T17:27:58.772Z,12.13
2019-03-03T17:31:07.130Z,12.11
2019-03-03T17:33:35.524Z,12.08
2019-03-03T17:36:23.155Z,11.98
2019-03-03T17:38:51.545Z,11.83
2019-03-03T17:41:19.946Z,11.70
2019-03-03T17:46:22.791Z,11.61
2019-03-03T17:51:25.152Z,11.56
2019-03-03T17:56:27.857Z,11.53
2019-03-03T17:58:56.281Z,11.52
2019-03-03T18:06:45.687Z,11.54
2019-03-03T18:09:54.038Z,11.54
2019-03-03T18:12:22.468Z,11.53
2019-03-03T18:14:50.887Z,11.48
2019-03-03T18:19:52.868Z,11.37
2019-03-03T18:22:21.267Z,11.25
2019-03-03T18:27:28.753Z,11.11
2019-03-03T18:29:57.149Z,11.08
2019-03-03T18:32:25.542Z,11.08
2019-03-03T18:34:53.984Z,11.07
2019-03-03T18:37:22.377Z,11.02
2019-03-03T18:40:10.120Z,10.97
2019-03-03T18:42:57.840Z,10.92
2019-03-03T18:45:45.548Z,10.87
2019-03-03T18:48:33.265Z,10.80
2019-03-03T18:51:01.695Z,10.70
2019-03-03T18:53:49.439Z,10.60
2019-03-03T18:58:52.384Z,10.48
2019-03-03T19:01:20.821Z,10.46
2019-03-03T19:03:49.221Z,10.42
2019-03-03T19:09:19.060Z,10.39
2019-03-03T19:11:47.487Z,10.37
2019-03-03T19:14:15.887Z,10.37
2019-03-03T19:16:44.308Z,10.36
2019-03-03T19:19:12.702Z,10.37
2019-03-03T19:21:41.093Z,10.33
2019-03-03T19:26:43.365Z,10.24
2019-03-03T19:31:46.166Z,10.19
2019-03-03T19:40:01.888Z,10.15
2019-03-03T19:42:30.901Z,10.13
2019-03-03T19:45:19.773Z,10.13
2019-03-03T19:47:48.290Z,10.14
2019-03-03T19:50:36.125Z,10.14
2019-03-03T19:53:44.501Z,10.13
2019-03-03T19:58:46.856Z,10.04
2019-03-03T20:01:15.365Z,10.01
2019-03-03T20:03:43.831Z,9.99
2019-03-03T20:06:52.358Z,9.96
2019-03-03T20:09:20.748Z,9.92
2019-03-03T20:12:01.175Z,9.86
2019-03-03T20:17:22.951Z,9.77
2019-03-03T20:19:51.339Z,9.73
2019-03-03T20:22:19.738Z,9.74
2019-03-03T20:25:07.531Z,9.72
2019-03-03T20:28:15.855Z,9.67
2019-03-03T20:35:54.219Z,9.55
2019-03-03T20:38:22.706Z,9.54
2019-03-03T20:40:51.106Z,9.51
2019-03-03T20:43:19.501Z,9.44
2019-03-03T20:48:21.848Z,9.41
2019-03-03T20:51:30.196Z,9.39
2019-03-03T20:53:58.590Z,9.33
2019-03-03T20:56:26.988Z,9.32
2019-03-03T20:58:55.417Z,9.32
2019-03-03T21:01:23.814Z,9.33
2019-03-03T21:03:52.208Z,9.35
2019-03-03T21:08:54.407Z,9.34
2019-03-03T21:11:25.187Z,9.31
2019-03-03T21:13:53.584Z,9.25
2019-03-03T21:16:21.982Z,9.21
2019-03-03T21:21:24.730Z,9.24
2019-03-03T21:26:27.272Z,9.28
2019-03-03T21:31:29.686Z,9.25
2019-03-03T21:33:58.136Z,9.21
2019-03-03T21:36:26.527Z,9.17
2019-03-03T21:38:54.928Z,9.17
2019-03-03T21:41:23.343Z,9.16
2019-03-03T21:43:51.735Z,9.12
2019-03-03T21:46:20.135Z,9.10
2019-03-03T21:54:17.890Z,8.98
2019-03-03T22:02:07.547Z,8.76
2019-03-03T22:07:09.906Z,8.71
2019-03-03T22:09:38.294Z,8.71
2019-03-03T22:14:40.270Z,8.76
2019-03-03T22:17:21.083Z,8.72
2019-03-03T22:19:49.466Z,8.69
2019-03-03T22:22:17.858Z,8.65
2019-03-03T22:27:20.039Z,8.62
2019-03-03T22:29:48.439Z,8.61
2019-03-03T22:32:16.899Z,8.59
2019-03-03T22:34:45.296Z,8.58
2019-03-03T22:37:13.683Z,8.55
2019-03-03T22:39:42.099Z,8.53
2019-03-03T22:42:10.483Z,8.48
2019-03-03T22:44:38.876Z,8.47
2019-03-03T22:47:07.310Z,8.46
2019-03-03T22:49:35.701Z,8.47
2019-03-03T22:54:57.540Z,8.54
2019-03-03T22:57:25.959Z,8.54
2019-03-03T22:59:54.346Z,8.52
2019-03-03T23:03:02.783Z,8.50
2019-03-03T23:06:11.155Z,8.52
2019-03-03T23:09:19.560Z,8.51
2019-03-03T23:12:26.548Z,8.48
2019-03-03T23:15:33.652Z,8.50
2019-03-03T23:18:40.654Z,8.49
2019-03-03T23:21:47.721Z,8.44
2019-03-03T23:24:54.705Z,8.42
2019-03-03T23:27:42.376Z,8.41
2019-03-03T23:30:30.090Z,8.41
2019-03-03T23:32:58.506Z,8.38
2019-03-03T23:35:26.903Z,8.37
2019-03-03T23:37:55.295Z,8.37
2019-03-03T23:42:57.634Z,8.35
2019-03-03T23:45:26.047Z,8.35
2019-03-03T23:47:54.443Z,8.35
2019-03-03T23:50:22.840Z,8.34
2019-03-03T23:52:51.261Z,8.35
2019-03-03T23:55:19.651Z,8.37
2019-03-03T23:57:48.047Z,8.40
